createdAt,value
2023-01-29T00:00:54.807Z,20.46
2023-01-29T00:01:54.900Z,20.43
2023-01-29T00:02:54.887Z,20.53
2023-01-29T00:03:54.919Z,20.45
2023-01-29T00:04:58.910Z,20.49
2023-01-29T00:05:54.865Z,20.48
2023-01-29T00:06:54.836Z,20.49
2023-01-29T00:07:54.808Z,20.48
2023-01-29T00:08:54.813Z,20.48
2023-01-29T00:09:54.760Z,20.46
2023-01-29T00:10:54.720Z,20.45
2023-01-29T00:11:54.667Z,20.51
2023-01-29T00:12:54.652Z,20.49
2023-01-29T00:13:54.611Z,20.54
2023-01-29T00:14:54.577Z,20.49
2023-01-29T00:15:54.545Z,20.49
2023-01-29T00:16:54.582Z,20.46
2023-01-29T00:17:54.501Z,20.53
2023-01-29T00:18:54.452Z,20.48
2023-01-29T00:19:54.406Z,20.49
2023-01-29T00:20:54.424Z,20.56
2023-01-29T00:21:54.350Z,20.51
2023-01-29T00:22:54.322Z,20.53
2023-01-29T00:23:54.290Z,20.46
2023-01-29T00:24:54.237Z,20.48
2023-01-29T00:25:54.238Z,20.53
2023-01-29T00:26:54.190Z,20.54
2023-01-29T00:27:54.138Z,20.51
2023-01-29T00:28:54.121Z,20.51
2023-01-29T00:29:54.071Z,20.52
2023-01-29T00:30:54.125Z,20.51
2023-01-29T00:31:54.075Z,20.49
2023-01-29T00:32:53.940Z,20.54
2023-01-29T00:33:53.911Z,20.57
2023-01-29T00:34:53.876Z,20.52
2023-01-29T00:35:53.815Z,20.56
2023-01-29T00:36:53.786Z,20.52
2023-01-29T00:37:53.741Z,20.57
2023-01-29T00:38:53.696Z,20.51
2023-01-29T00:39:53.680Z,20.52
2023-01-29T00:40:53.621Z,20.57
2023-01-29T00:41:53.598Z,20.54
2023-01-29T00:42:53.550Z,20.56
2023-01-29T00:43:53.502Z,20.57
2023-01-29T00:44:53.483Z,20.54
2023-01-29T00:45:53.415Z,20.56
2023-01-29T00:46:53.531Z,20.53
2023-01-29T00:47:53.348Z,20.54
2023-01-29T00:48:53.290Z,20.56
2023-01-29T00:49:53.249Z,20.59
2023-01-29T00:50:53.216Z,20.51
2023-01-29T00:51:53.161Z,20.59
2023-01-29T00:52:53.126Z,20.57
2023-01-29T00:53:53.091Z,20.60
2023-01-29T00:54:53.077Z,20.56
2023-01-29T00:55:53.006Z,20.56
2023-01-29T00:56:52.980Z,20.64
2023-01-29T00:57:52.935Z,20.57
2023-01-29T00:58:52.882Z,20.56
2023-01-29T00:59:52.824Z,20.56
2023-01-29T01:00:52.794Z,20.53
2023-01-29T01:01:52.796Z,20.56
2023-01-29T01:02:52.719Z,20.56
2023-01-29T01:03:52.658Z,20.54
2023-01-29T01:04:52.633Z,20.56
2023-01-29T01:05:52.600Z,20.57
2023-01-29T01:06:52.557Z,20.56
2023-01-29T01:07:52.532Z,20.57
2023-01-29T01:08:52.557Z,20.54
2023-01-29T01:09:52.447Z,20.56
2023-01-29T01:10:52.424Z,20.60
2023-01-29T01:11:52.387Z,20.56
2023-01-29T01:12:52.337Z,20.59
2023-01-29T01:13:52.297Z,20.56
2023-01-29T01:14:52.268Z,20.57
2023-01-29T01:15:52.229Z,20.56
2023-01-29T01:16:52.224Z,20.57
2023-01-29T01:17:52.196Z,20.59
2023-01-29T01:18:52.156Z,20.60
2023-01-29T01:19:52.147Z,20.54
2023-01-29T01:20:52.099Z,20.57
2023-01-29T01:21:52.018Z,20.64
2023-01-29T01:22:52.015Z,20.64
2023-01-29T01:23:51.933Z,20.64
2023-01-29T01:24:51.900Z,20.65
2023-01-29T01:25:51.863Z,20.60
2023-01-29T01:26:51.855Z,20.60
2023-01-29T01:27:51.807Z,20.60
2023-01-29T01:28:51.758Z,20.64
2023-01-29T01:29:51.729Z,20.60
2023-01-29T01:30:51.699Z,20.64
2023-01-29T01:31:51.736Z,20.59
2023-01-29T01:32:51.605Z,20.62
2023-01-29T01:33:51.566Z,20.62
2023-01-29T01:34:51.536Z,20.64
2023-01-29T01:35:51.506Z,20.57
2023-01-29T01:36:51.438Z,20.59
2023-01-29T01:37:51.424Z,20.65
2023-01-29T01:38:51.377Z,20.62
2023-01-29T01:39:51.337Z,20.59
2023-01-29T01:40:51.306Z,20.64
2023-01-29T01:41:51.306Z,20.64
2023-01-29T01:42:51.236Z,20.59
2023-01-29T01:43:51.195Z,20.57
2023-01-29T01:44:51.157Z,20.65
2023-01-29T01:45:51.136Z,20.65
2023-01-29T01:46:51.091Z,20.60
2023-01-29T01:47:51.056Z,20.65
2023-01-29T01:48:51.023Z,20.60
2023-01-29T01:49:50.944Z,20.64
2023-01-29T01:50:50.928Z,20.64
2023-01-29T01:51:50.907Z,20.68
2023-01-29T01:52:50.829Z,20.70
2023-01-29T01:53:50.797Z,20.65
2023-01-29T01:54:50.735Z,20.65
2023-01-29T01:55:50.701Z,20.66
2023-01-29T01:56:50.666Z,20.62
2023-01-29T01:57:52.215Z,20.68
2023-01-29T01:58:50.662Z,20.65
2023-01-29T01:59:50.559Z,20.65
2023-01-29T02:00:50.526Z,20.70
2023-01-29T02:01:50.518Z,20.67
2023-01-29T02:02:50.443Z,20.68
2023-01-29T02:03:50.384Z,20.65
2023-01-29T02:04:50.352Z,20.68
2023-01-29T02:05:50.323Z,20.70
2023-01-29T02:06:50.262Z,20.67
2023-01-29T02:07:50.762Z,20.65
2023-01-29T02:08:50.213Z,20.70
2023-01-29T02:09:50.145Z,20.68
2023-01-29T02:10:50.121Z,20.70
2023-01-29T02:11:50.071Z,20.72
2023-01-29T02:12:50.025Z,20.68
2023-01-29T02:13:49.997Z,20.70
2023-01-29T02:14:49.960Z,20.68
2023-01-29T02:15:49.940Z,20.73
2023-01-29T02:16:49.907Z,20.68
2023-01-29T02:17:49.900Z,20.75
2023-01-29T02:18:49.830Z,20.70
2023-01-29T02:19:49.763Z,20.62
2023-01-29T02:20:49.734Z,20.66
2023-01-29T02:21:49.702Z,20.70
2023-01-29T02:22:49.665Z,20.71
2023-01-29T02:23:49.674Z,20.70
2023-01-29T02:24:49.596Z,20.68
2023-01-29T02:25:49.585Z,20.68
2023-01-29T02:26:49.536Z,20.70
2023-01-29T02:27:49.485Z,20.68
2023-01-29T02:28:49.471Z,20.68
2023-01-29T02:29:49.478Z,20.75
2023-01-29T02:30:49.421Z,20.73
2023-01-29T02:31:49.386Z,20.72
2023-01-29T02:32:49.303Z,20.70
2023-01-29T02:33:49.274Z,20.72
2023-01-29T02:34:49.277Z,20.66
2023-01-29T02:35:49.217Z,20.73
2023-01-29T02:36:49.180Z,20.66
2023-01-29T02:37:49.129Z,20.72
2023-01-29T02:38:49.144Z,20.72
2023-01-29T02:39:49.075Z,20.73
2023-01-29T02:40:49.027Z,20.73
2023-01-29T02:41:48.986Z,20.72
2023-01-29T02:42:48.957Z,20.72
2023-01-29T02:43:48.918Z,20.75
2023-01-29T02:44:48.907Z,20.73
2023-01-29T02:45:48.909Z,20.73
2023-01-29T02:46:48.825Z,20.73
2023-01-29T02:47:48.796Z,20.79
2023-01-29T02:48:48.725Z,20.66
2023-01-29T02:49:48.693Z,20.70
2023-01-29T02:50:48.699Z,20.52
2023-01-29T02:51:48.640Z,20.29
2023-01-29T02:52:48.615Z,20.17
2023-01-29T02:53:48.576Z,19.35
2023-01-29T02:54:48.577Z,18.94
2023-01-29T02:55:48.489Z,19.07
2023-01-29T02:56:48.463Z,19.12
2023-01-29T02:57:48.428Z,18.77
2023-01-29T02:58:48.392Z,18.77
2023-01-29T02:59:48.354Z,18.54
2023-01-29T03:00:48.339Z,18.18
2023-01-29T03:01:48.295Z,18.31
2023-01-29T03:02:48.258Z,18.43
2023-01-29T03:03:48.199Z,18.54
2023-01-29T03:04:48.177Z,18.22
2023-01-29T03:05:48.168Z,17.81
2023-01-29T03:06:48.122Z,17.22
2023-01-29T03:07:48.094Z,17.60
2023-01-29T03:08:48.031Z,17.76
2023-01-29T03:09:48.017Z,17.89
2023-01-29T03:10:47.970Z,17.57
2023-01-29T03:11:47.924Z,17.31
2023-01-29T03:12:47.887Z,16.87
2023-01-29T03:13:47.868Z,16.84
2023-01-29T03:14:47.818Z,16.63
2023-01-29T03:15:47.798Z,16.63
2023-01-29T03:16:47.842Z,16.88
2023-01-29T03:17:47.715Z,16.74
2023-01-29T03:18:47.679Z,16.72
2023-01-29T03:19:47.651Z,16.00
2023-01-29T03:20:47.613Z,16.36
2023-01-29T03:21:47.612Z,16.17
2023-01-29T03:22:47.521Z,16.42
2023-01-29T03:23:47.516Z,16.55
2023-01-29T03:24:47.481Z,16.42
2023-01-29T03:25:47.448Z,15.80
2023-01-29T03:26:47.393Z,15.70
2023-01-29T03:27:47.392Z,15.89
2023-01-29T03:28:47.364Z,15.80
2023-01-29T03:29:47.327Z,15.61
2023-01-29T03:30:47.310Z,16.08
2023-01-29T03:31:47.300Z,15.88
2023-01-29T03:32:47.219Z,15.65
2023-01-29T03:34:47.173Z,15.41
2023-01-29T03:35:47.136Z,15.30
2023-01-29T03:36:47.112Z,15.29
2023-01-29T03:37:47.081Z,15.56
2023-01-29T03:38:47.059Z,15.27
2023-01-29T03:39:47.040Z,15.43
2023-01-29T03:40:47.012Z,15.19
2023-01-29T03:41:46.970Z,14.74
2023-01-29T03:42:46.934Z,15.31
2023-01-29T03:43:46.926Z,15.16
2023-01-29T03:44:48.918Z,15.27
2023-01-29T03:45:46.885Z,15.33
2023-01-29T03:46:46.807Z,15.04
2023-01-29T03:47:46.757Z,15.17
2023-01-29T03:48:46.710Z,14.84
2023-01-29T04:15:46.883Z,14.63
2023-01-29T04:16:46.921Z,14.56
2023-01-29T04:17:46.927Z,14.48
2023-01-29T04:18:46.966Z,14.48
2023-01-29T04:19:47.006Z,14.01
2023-01-29T04:20:47.045Z,14.24
2023-01-29T04:21:47.072Z,14.14
2023-01-29T04:22:47.101Z,14.05
2023-01-29T04:23:47.135Z,14.27
2023-01-29T04:24:47.174Z,14.13
2023-01-29T04:25:47.246Z,14.31
2023-01-29T04:26:47.257Z,14.39
2023-01-29T04:27:47.319Z,14.42
2023-01-29T04:28:47.334Z,14.40
2023-01-29T04:29:47.413Z,13.99
2023-01-29T04:30:47.478Z,14.13
2023-01-29T04:31:47.419Z,14.29
2023-01-29T04:32:47.461Z,14.38
2023-01-29T04:33:47.480Z,14.29
2023-01-29T04:34:47.486Z,14.27
2023-01-29T04:35:47.520Z,14.18
2023-01-29T04:36:47.574Z,14.16
2023-01-29T04:37:47.569Z,14.04
2023-01-29T04:38:47.609Z,14.05
2023-01-29T04:39:47.609Z,14.07
2023-01-29T04:40:47.647Z,14.24
2023-01-29T04:41:47.703Z,14.20
2023-01-29T04:42:47.712Z,14.19
2023-01-29T04:43:47.729Z,13.78
2023-01-29T04:44:47.751Z,13.99
2023-01-29T04:45:47.795Z,13.93
2023-01-29T04:46:47.852Z,13.89
2023-01-29T04:47:47.880Z,14.13
2023-01-29T04:48:47.889Z,14.00
2023-01-29T04:49:47.926Z,13.87
2023-01-29T04:50:47.968Z,14.06
2023-01-29T04:51:47.983Z,13.68
2023-01-29T04:52:48.790Z,13.91
2023-01-29T04:53:47.975Z,13.72
2023-01-29T04:54:47.914Z,13.67
2023-01-29T04:55:47.885Z,13.78
2023-01-29T04:56:47.906Z,13.94
2023-01-29T04:57:47.863Z,13.95
2023-01-29T04:58:47.814Z,14.05
2023-01-29T04:59:47.776Z,13.83
2023-01-29T05:00:47.827Z,13.81
2023-01-29T05:01:47.901Z,13.70
2023-01-29T05:02:47.935Z,13.56
2023-01-29T05:03:47.913Z,13.71
2023-01-29T05:04:47.921Z,13.78
2023-01-29T05:05:47.984Z,13.95
2023-01-29T05:06:48.030Z,13.81
2023-01-29T05:07:48.055Z,13.86
2023-01-29T05:08:48.063Z,13.62
2023-01-29T05:09:48.145Z,13.59
2023-01-29T05:10:48.161Z,13.54
2023-01-29T05:11:48.169Z,13.59
2023-01-29T05:12:48.216Z,13.76
2023-01-29T05:13:48.273Z,13.79
2023-01-29T05:14:48.295Z,13.76
2023-01-29T05:15:48.357Z,13.81
2023-01-29T05:16:48.353Z,13.64
2023-01-29T05:17:48.370Z,13.56
2023-01-29T05:18:48.407Z,13.43
2023-01-29T05:19:48.470Z,13.56
2023-01-29T05:20:48.471Z,13.65
2023-01-29T05:21:48.528Z,13.65
2023-01-29T05:22:48.556Z,13.56
2023-01-29T05:23:48.602Z,13.52
2023-01-29T05:24:48.584Z,13.55
2023-01-29T05:25:48.601Z,13.54
2023-01-29T05:26:48.656Z,13.49
2023-01-29T05:27:48.591Z,13.39
2023-01-29T05:28:48.548Z,13.58
2023-01-29T05:29:48.533Z,13.55
2023-01-29T05:30:48.471Z,13.52
2023-01-29T05:31:48.869Z,13.65
2023-01-29T05:32:48.408Z,13.65
2023-01-29T05:33:48.350Z,13.55
2023-01-29T05:34:48.312Z,13.57
2023-01-29T05:35:48.327Z,13.41
2023-01-29T05:36:48.275Z,13.32
2023-01-29T05:37:48.228Z,13.43
2023-01-29T05:38:48.200Z,13.52
2023-01-29T05:39:48.181Z,13.46
2023-01-29T05:40:48.157Z,13.49
2023-01-29T05:41:48.134Z,13.60
2023-01-29T05:42:48.131Z,13.44
2023-01-29T05:43:48.073Z,13.39
2023-01-29T05:44:48.037Z,13.35
2023-01-29T05:45:47.999Z,13.24
2023-01-29T05:46:48.008Z,13.44
2023-01-29T05:47:47.925Z,13.54
2023-01-29T05:48:47.895Z,13.41
2023-01-29T05:49:47.869Z,13.46
2023-01-29T05:50:47.838Z,13.49
2023-01-29T05:51:47.804Z,13.22
2023-01-29T05:52:47.803Z,13.28
2023-01-29T05:53:47.757Z,13.30
2023-01-29T05:54:47.716Z,13.20
2023-01-29T05:55:47.721Z,13.30
2023-01-29T05:56:47.696Z,13.47
2023-01-29T05:57:47.652Z,13.47
2023-01-29T05:58:47.657Z,13.42
2023-01-29T05:59:47.596Z,13.39
2023-01-29T06:00:47.589Z,13.39
2023-01-29T06:01:47.547Z,13.16
2023-01-29T06:02:47.549Z,13.16
2023-01-29T06:03:47.516Z,13.19
2023-01-29T06:04:47.456Z,13.33
2023-01-29T06:05:47.422Z,13.33
2023-01-29T06:06:47.380Z,13.27
2023-01-29T06:07:47.386Z,13.33
2023-01-29T06:08:47.813Z,13.36
2023-01-29T06:09:47.302Z,13.25
2023-01-29T06:10:47.265Z,13.27
2023-01-29T06:11:47.227Z,13.08
2023-01-29T06:12:47.223Z,13.17
2023-01-29T06:13:47.201Z,13.25
2023-01-29T06:14:47.142Z,13.28
2023-01-29T06:15:47.210Z,13.25
2023-01-29T06:16:47.095Z,13.25
2023-01-29T06:17:47.056Z,13.16
2023-01-29T06:18:47.028Z,13.16
2023-01-29T06:19:47.002Z,12.99
2023-01-29T06:20:46.967Z,13.01
2023-01-29T06:21:46.961Z,13.01
2023-01-29T06:22:46.919Z,13.22
2023-01-29T06:23:46.924Z,13.28
2023-01-29T06:24:46.882Z,13.18
2023-01-29T06:25:46.865Z,13.12
2023-01-29T06:26:46.843Z,13.27
2023-01-29T06:27:46.799Z,13.08
2023-01-29T06:28:46.807Z,13.06
2023-01-29T06:29:46.756Z,13.01
2023-01-29T06:30:46.761Z,12.99
2023-01-29T06:31:46.878Z,13.13
2023-01-29T06:32:46.674Z,13.14
2023-01-29T06:33:46.644Z,13.18
2023-01-29T06:34:49.587Z,13.09
2023-01-29T06:35:46.590Z,13.23
2023-01-29T06:36:46.547Z,12.95
2023-01-29T06:37:46.558Z,13.08
2023-01-29T06:38:46.535Z,12.98
2023-01-29T06:39:46.474Z,13.01
2023-01-29T06:40:46.456Z,13.14
2023-01-29T06:41:46.447Z,13.06
2023-01-29T06:42:46.391Z,13.18
2023-01-29T06:44:46.332Z,13.01
2023-01-29T06:45:46.314Z,12.98
2023-01-29T06:46:46.469Z,13.09
2023-01-29T06:47:46.225Z,12.90
2023-01-29T06:48:46.222Z,12.91
2023-01-29T06:49:46.172Z,13.01
2023-01-29T06:50:46.129Z,13.09
2023-01-29T06:51:46.131Z,13.09
2023-01-29T06:52:46.093Z,13.14
2023-01-29T06:53:46.829Z,12.96
2023-01-29T06:54:46.022Z,13.10
2023-01-29T06:55:45.997Z,12.98
2023-01-29T06:56:46.001Z,12.96
2023-01-29T06:57:45.967Z,12.84
2023-01-29T07:05:45.711Z,13.01
2023-01-29T07:06:45.679Z,12.79
2023-01-29T07:07:45.671Z,12.80
2023-01-29T07:08:45.629Z,12.87
2023-01-29T07:09:45.585Z,12.90
2023-01-29T07:10:45.549Z,12.96
2023-01-29T07:11:45.509Z,12.80
2023-01-29T07:12:45.500Z,12.85
2023-01-29T07:13:45.504Z,12.75
2023-01-29T07:14:45.464Z,12.87
2023-01-29T07:15:45.409Z,12.72
2023-01-29T09:17:41.897Z,13.11
2023-01-29T09:18:41.904Z,13.16
2023-01-29T09:19:41.838Z,13.19
2023-01-29T09:21:41.798Z,13.22
2023-01-29T09:22:41.739Z,13.18
2023-01-29T09:23:41.718Z,13.30
2023-01-29T09:24:41.669Z,13.22
2023-01-29T09:25:41.659Z,13.28
2023-01-29T09:26:41.674Z,13.31
2023-01-29T09:27:41.628Z,13.35
2023-01-29T09:28:41.575Z,13.34
2023-01-29T09:29:41.513Z,13.43
2023-01-29T09:30:41.571Z,13.34
2023-01-29T09:31:41.585Z,13.42
2023-01-29T09:32:53.335Z,13.45
2023-01-29T09:33:42.390Z,13.47
2023-01-29T09:34:41.374Z,13.45
2023-01-29T09:35:41.362Z,13.50
2023-01-29T09:36:41.298Z,13.52
2023-01-29T09:37:41.263Z,13.50
2023-01-29T09:38:41.225Z,13.55
2023-01-29T09:39:41.196Z,13.52
2023-01-29T09:40:41.159Z,13.54
2023-01-29T09:41:41.111Z,13.60
2023-01-29T09:42:41.084Z,13.61
2023-01-29T09:44:41.017Z,13.59
2023-01-29T09:45:41.073Z,13.65
2023-01-29T09:46:40.949Z,13.68
2023-01-29T09:47:40.911Z,13.68
2023-01-29T09:48:40.884Z,13.73
2023-01-29T09:49:40.849Z,13.75
2023-01-29T09:50:40.815Z,13.80
2023-01-29T09:51:40.781Z,13.78
2023-01-29T09:52:40.741Z,13.78
2023-01-29T09:53:40.685Z,13.83
2023-01-29T09:54:40.708Z,13.81
2023-01-29T09:55:40.619Z,13.83
2023-01-29T09:56:40.595Z,13.88
2023-01-29T09:57:40.549Z,13.86
2023-01-29T09:58:40.554Z,13.86
2023-01-29T09:59:40.490Z,13.93
2023-01-29T10:00:40.468Z,13.96
2023-01-29T10:01:40.499Z,13.91
2023-01-29T10:02:40.393Z,13.94
2023-01-29T10:03:40.376Z,13.93
2023-01-29T10:04:40.375Z,13.93
2023-01-29T10:05:40.289Z,13.99
2023-01-29T10:06:40.243Z,14.01
2023-01-29T10:07:40.198Z,14.06
2023-01-29T10:08:40.203Z,14.01
2023-01-29T10:09:40.139Z,14.09
2023-01-29T10:10:40.106Z,14.12
2023-01-29T10:11:40.100Z,14.12
2023-01-29T10:12:40.029Z,14.11
2023-01-29T10:13:39.994Z,14.11
2023-01-29T10:14:39.987Z,14.12
2023-01-29T10:15:39.950Z,14.17
2023-01-29T10:16:39.984Z,14.20
2023-01-29T10:17:39.879Z,14.20
2023-01-29T10:18:39.823Z,14.22
2023-01-29T10:19:39.794Z,14.24
2023-01-29T10:20:39.770Z,14.27
2023-01-29T10:21:39.729Z,14.24
2023-01-29T10:22:39.736Z,14.28
2023-01-29T10:23:39.666Z,14.35
2023-01-29T10:24:40.406Z,14.32
2023-01-29T10:25:39.557Z,14.33
2023-01-29T10:26:39.590Z,14.35
2023-01-29T10:27:39.490Z,14.40
2023-01-29T10:28:39.460Z,14.40
2023-01-29T10:29:39.415Z,14.41
2023-01-29T10:30:39.395Z,14.46
2023-01-29T10:31:39.453Z,14.49
2023-01-29T10:32:39.305Z,14.45
2023-01-29T10:33:49.172Z,14.45
2023-01-29T10:34:40.207Z,14.46
2023-01-29T10:35:39.181Z,14.51
2023-01-29T10:36:39.156Z,14.49
2023-01-29T10:37:39.079Z,14.53
2023-01-29T10:38:39.086Z,14.54
2023-01-29T10:39:38.995Z,14.56
2023-01-29T10:40:38.956Z,14.61
2023-01-29T10:41:38.928Z,14.62
2023-01-29T10:42:38.890Z,14.61
2023-01-29T10:43:38.853Z,14.62
2023-01-29T10:44:38.820Z,14.66
2023-01-29T10:45:38.825Z,14.70
2023-01-29T10:46:38.748Z,14.69
2023-01-29T10:47:38.732Z,14.69
2023-01-29T10:48:38.663Z,14.67
2023-01-29T10:49:38.606Z,14.72
2023-01-29T10:50:38.575Z,14.69
2023-01-29T10:51:38.531Z,14.72
2023-01-29T10:52:38.520Z,14.74
2023-01-29T10:53:38.444Z,14.82
2023-01-29T10:54:38.395Z,14.79
2023-01-29T10:55:38.361Z,14.83
2023-01-29T10:56:38.328Z,14.79
2023-01-29T10:57:38.277Z,14.85
2023-01-29T10:58:38.940Z,14.88
2023-01-29T10:59:38.197Z,14.90
2023-01-29T11:00:38.145Z,14.87
2023-01-29T11:01:38.145Z,14.91
2023-01-29T11:02:38.112Z,14.90
2023-01-29T11:03:38.060Z,14.95
2023-01-29T11:04:37.982Z,14.96
2023-01-29T11:05:37.946Z,14.98
2023-01-29T11:06:37.915Z,15.04
2023-01-29T11:07:37.866Z,15.07
2023-01-29T11:08:37.820Z,15.04
2023-01-29T11:09:37.792Z,15.04
2023-01-29T11:10:37.717Z,15.04
2023-01-29T11:11:37.700Z,15.11
2023-01-29T11:12:37.656Z,15.08
2023-01-29T11:13:37.583Z,15.11
2023-01-29T11:14:37.539Z,15.09
2023-01-29T11:15:37.509Z,15.12
2023-01-29T11:16:37.513Z,15.16
2023-01-29T11:17:37.423Z,15.16
2023-01-29T11:18:37.353Z,15.14
2023-01-29T11:19:37.326Z,15.19
2023-01-29T11:20:37.262Z,15.17
2023-01-29T11:21:37.235Z,15.24
2023-01-29T11:22:37.193Z,15.22
2023-01-29T11:23:37.158Z,15.25
2023-01-29T11:24:37.090Z,15.27
2023-01-29T11:25:37.058Z,15.28
2023-01-29T11:26:37.082Z,15.28
2023-01-29T11:27:36.964Z,15.30
2023-01-29T11:28:36.926Z,15.33
2023-01-29T11:29:36.870Z,15.34
2023-01-29T11:30:36.834Z,15.34
2023-01-29T11:31:36.891Z,15.38
2023-01-29T11:32:36.725Z,15.40
2023-01-29T11:33:36.658Z,15.35
2023-01-29T11:34:36.628Z,15.43
2023-01-29T11:35:36.615Z,15.43
2023-01-29T11:36:36.539Z,15.41
2023-01-29T11:37:36.505Z,15.42
2023-01-29T11:38:36.460Z,15.43
2023-01-29T11:39:36.394Z,15.51
2023-01-29T11:40:36.374Z,15.46
2023-01-29T11:41:36.321Z,15.53
2023-01-29T11:42:36.289Z,15.50
2023-01-29T11:43:36.246Z,15.50
2023-01-29T11:44:36.192Z,15.53
2023-01-29T11:45:36.178Z,15.51
2023-01-29T11:46:36.117Z,15.53
2023-01-29T11:47:36.295Z,15.55
2023-01-29T11:48:36.030Z,15.55
2023-01-29T11:49:36.020Z,15.59
2023-01-29T11:50:35.979Z,15.55
2023-01-29T11:51:35.906Z,15.56
2023-01-29T11:52:35.864Z,15.62
2023-01-29T11:53:35.837Z,15.64
2023-01-29T11:54:35.772Z,15.64
2023-01-29T11:55:49.751Z,15.69
2023-01-29T11:56:36.697Z,15.68
2023-01-29T11:57:35.647Z,15.66
2023-01-29T11:58:35.633Z,15.71
2023-01-29T11:59:35.566Z,15.74
2023-01-29T12:00:35.536Z,15.68
2023-01-29T12:01:35.489Z,15.71
2023-01-29T12:02:35.456Z,15.77
2023-01-29T12:03:35.420Z,15.79
2023-01-29T12:04:35.350Z,15.76
2023-01-29T12:05:35.333Z,15.79
2023-01-29T12:06:35.259Z,15.77
2023-01-29T12:07:35.208Z,15.80
2023-01-29T12:08:35.186Z,15.80
2023-01-29T12:09:35.114Z,15.82
2023-01-29T12:10:35.081Z,15.80
2023-01-29T12:11:35.044Z,15.79
2023-01-29T12:12:35.018Z,15.87
2023-01-29T12:13:34.965Z,15.87
2023-01-29T12:14:34.908Z,15.87
2023-01-29T12:15:34.864Z,15.89
2023-01-29T12:16:34.866Z,15.93
2023-01-29T12:17:34.788Z,15.92
2023-01-29T12:18:34.727Z,15.89
2023-01-29T12:19:34.746Z,15.95
2023-01-29T12:20:34.664Z,15.97
2023-01-29T12:21:34.617Z,15.92
2023-01-29T12:22:34.547Z,15.98
2023-01-29T12:23:34.516Z,15.97
2023-01-29T12:24:34.469Z,15.97
2023-01-29T12:25:34.424Z,15.92
2023-01-29T12:26:34.399Z,15.95
2023-01-29T12:27:34.313Z,15.99
2023-01-29T12:28:34.293Z,15.97
2023-01-29T12:29:34.222Z,15.97
2023-01-29T12:30:34.206Z,16.00
2023-01-29T12:31:34.208Z,16.00
2023-01-29T12:32:34.115Z,16.02
2023-01-29T12:33:34.475Z,15.99
2023-01-29T12:34:34.050Z,16.02
2023-01-29T12:35:33.974Z,16.00
2023-01-29T12:36:34.471Z,16.00
2023-01-29T12:37:34.446Z,16.04
2023-01-29T12:38:33.938Z,16.04
2023-01-29T12:39:34.002Z,16.05
2023-01-29T12:40:33.744Z,16.02
2023-01-29T12:41:33.681Z,16.05
2023-01-29T12:42:33.637Z,16.05
2023-01-29T12:43:33.565Z,16.10
2023-01-29T12:44:34.458Z,16.09
2023-01-29T12:45:33.465Z,16.07
2023-01-29T12:46:33.465Z,16.12
2023-01-29T12:47:33.381Z,16.07
2023-01-29T12:48:33.392Z,16.12
2023-01-29T12:49:33.294Z,16.07
2023-01-29T12:50:33.256Z,16.07
2023-01-29T12:51:33.195Z,16.11
2023-01-29T12:52:33.136Z,16.11
2023-01-29T12:53:33.113Z,16.09
2023-01-29T12:54:33.068Z,16.12
2023-01-29T12:55:33.017Z,16.12
2023-01-29T12:56:32.964Z,16.14
2023-01-29T12:57:32.902Z,16.14
2023-01-29T12:58:32.876Z,16.14
2023-01-29T12:59:32.815Z,16.14
2023-01-29T13:00:32.788Z,16.14
2023-01-29T13:01:32.725Z,16.11
2023-01-29T13:02:32.660Z,16.13
2023-01-29T13:03:32.681Z,16.09
2023-01-29T13:04:32.576Z,16.17
2023-01-29T13:05:32.518Z,16.18
2023-01-29T13:06:32.484Z,16.14
2023-01-29T13:07:32.580Z,16.18
2023-01-29T13:08:32.398Z,16.18
2023-01-29T13:09:32.499Z,16.19
2023-01-29T13:10:32.300Z,16.19
2023-01-29T13:11:32.248Z,16.19
2023-01-29T13:12:32.209Z,16.18
2023-01-29T13:13:32.167Z,16.16
2023-01-29T13:14:32.126Z,16.15
2023-01-29T13:15:32.081Z,16.20
2023-01-29T13:16:32.081Z,16.15
2023-01-29T13:17:31.946Z,16.20
2023-01-29T13:18:31.892Z,16.20
2023-01-29T13:19:31.856Z,16.15
2023-01-29T13:20:31.824Z,16.20
2023-01-29T13:21:31.758Z,16.20
2023-01-29T13:22:31.712Z,16.22
2023-01-29T13:23:31.668Z,16.14
2023-01-29T13:24:31.602Z,16.14
2023-01-29T13:25:31.540Z,16.22
2023-01-29T13:26:31.533Z,16.25
2023-01-29T13:27:32.015Z,16.23
2023-01-29T13:28:31.403Z,16.22
2023-01-29T13:29:31.495Z,16.20
2023-01-29T13:30:31.336Z,16.14
2023-01-29T13:31:31.285Z,16.19
2023-01-29T13:32:31.269Z,16.23
2023-01-29T13:33:31.151Z,16.20
2023-01-29T13:34:31.119Z,16.22
2023-01-29T13:35:31.079Z,16.20
2023-01-29T13:36:31.004Z,16.20
2023-01-29T13:37:30.943Z,16.17
2023-01-29T13:38:30.897Z,16.22
2023-01-29T13:39:30.849Z,16.26
2023-01-29T13:40:30.779Z,16.29
2023-01-29T13:41:30.730Z,16.26
2023-01-29T13:42:30.665Z,16.22
2023-01-29T13:43:30.636Z,16.26
2023-01-29T13:44:30.593Z,16.24
2023-01-29T13:45:30.530Z,16.22
2023-01-29T13:46:30.479Z,16.21
2023-01-29T13:47:30.444Z,16.28
2023-01-29T13:48:30.394Z,16.21
2023-01-29T13:49:30.379Z,16.27
2023-01-29T13:50:30.298Z,16.29
2023-01-29T13:51:30.260Z,16.26
2023-01-29T13:52:30.216Z,16.32
2023-01-29T13:53:30.153Z,16.32
2023-01-29T13:54:30.118Z,16.32
2023-01-29T13:55:30.088Z,16.34
2023-01-29T13:56:30.048Z,16.36
2023-01-29T13:57:29.970Z,16.34
2023-01-29T13:58:29.904Z,16.34
2023-01-29T13:59:29.876Z,16.33
2023-01-29T14:00:29.820Z,16.33
2023-01-29T14:01:29.862Z,16.37
2023-01-29T14:02:29.842Z,16.36
2023-01-29T14:03:35.900Z,16.38
2023-01-29T14:04:30.630Z,16.41
2023-01-29T14:05:29.606Z,16.38
2023-01-29T14:06:29.521Z,16.38
2023-01-29T14:07:29.487Z,16.42
2023-01-29T14:08:29.424Z,16.39
2023-01-29T14:09:29.411Z,16.44
2023-01-29T14:10:29.350Z,16.36
2023-01-29T14:11:29.314Z,16.42
2023-01-29T14:12:29.252Z,16.44
2023-01-29T14:13:29.226Z,16.46
2023-01-29T14:14:29.157Z,16.46
2023-01-29T14:15:29.120Z,16.46
2023-01-29T14:16:29.094Z,16.49
2023-01-29T14:17:29.033Z,16.46
2023-01-29T14:18:28.948Z,16.47
2023-01-29T14:19:28.897Z,16.53
2023-01-29T14:20:38.225Z,16.49
2023-01-29T14:21:29.821Z,16.54
2023-01-29T14:22:28.761Z,16.55
2023-01-29T14:23:28.712Z,16.55
2023-01-29T14:24:28.674Z,16.57
2023-01-29T14:25:28.619Z,16.53
2023-01-29T14:26:28.583Z,16.57
2023-01-29T14:27:28.524Z,16.57
2023-01-29T14:28:29.008Z,16.60
2023-01-29T14:29:34.772Z,16.58
2023-01-29T14:30:29.380Z,16.61
2023-01-29T14:31:28.405Z,16.64
2023-01-29T14:32:28.257Z,16.68
2023-01-29T14:33:28.234Z,16.66
2023-01-29T14:34:28.159Z,16.69
2023-01-29T14:35:28.137Z,16.66
2023-01-29T14:36:28.069Z,16.71
2023-01-29T14:37:27.997Z,16.69
2023-01-29T14:38:27.947Z,16.70
2023-01-29T14:39:27.920Z,16.70
2023-01-29T14:40:27.860Z,16.74
2023-01-29T14:41:27.797Z,16.77
2023-01-29T14:42:27.768Z,16.79
2023-01-29T14:43:27.702Z,16.72
2023-01-29T14:44:27.651Z,16.74
2023-01-29T14:45:27.588Z,16.80
2023-01-29T14:46:27.628Z,16.82
2023-01-29T14:47:27.501Z,16.83
2023-01-29T14:48:27.432Z,16.85
2023-01-29T14:49:27.400Z,16.83
2023-01-29T14:50:27.364Z,16.91
2023-01-29T14:51:27.294Z,16.85
2023-01-29T14:52:27.252Z,16.89
2023-01-29T14:53:27.188Z,16.85
2023-01-29T14:54:27.122Z,16.89
2023-01-29T14:55:27.083Z,16.94
2023-01-29T14:56:27.027Z,16.96
2023-01-29T14:57:26.992Z,16.87
2023-01-29T14:58:26.916Z,16.94
2023-01-29T14:59:26.886Z,16.91
2023-01-29T15:00:26.829Z,16.97
2023-01-29T15:01:26.915Z,16.95
2023-01-29T15:02:26.824Z,17.02
2023-01-29T15:03:26.707Z,17.03
2023-01-29T15:04:26.683Z,17.00
2023-01-29T15:05:26.660Z,17.02
2023-01-29T15:06:26.593Z,17.07
2023-01-29T15:07:26.559Z,17.08
2023-01-29T15:08:26.496Z,17.11
2023-01-29T15:09:35.951Z,17.11
2023-01-29T15:10:27.449Z,17.08
2023-01-29T15:11:26.364Z,17.09
2023-01-29T15:12:26.305Z,17.09
2023-01-29T15:13:26.258Z,17.12
2023-01-29T15:14:26.227Z,17.14
2023-01-29T15:15:27.451Z,17.16
2023-01-29T15:16:26.131Z,17.12
2023-01-29T15:17:26.087Z,17.19
2023-01-29T15:18:26.037Z,17.14
2023-01-29T15:19:25.978Z,17.17
2023-01-29T15:20:25.926Z,17.22
2023-01-29T15:21:25.865Z,17.23
2023-01-29T15:22:25.840Z,17.22
2023-01-29T15:23:25.833Z,17.20
2023-01-29T15:24:25.734Z,17.25
2023-01-29T15:25:25.689Z,17.23
2023-01-29T15:26:27.189Z,17.28
2023-01-29T15:27:25.601Z,17.30
2023-01-29T15:28:25.552Z,17.26
2023-01-29T15:29:25.507Z,17.31
2023-01-29T15:30:25.473Z,17.37